sensor_id;sensor_type;location;lat;lon;timestamp;temperature;humidity
12688;DHT22;6408;59.388;17.798;2022-10-29T00:01:41;12.50;99.90
12688;DHT22;6408;59.388;17.798;2022-10-29T00:04:09;12.50;99.90
12688;DHT22;6408;59.388;17.798;2022-10-29T00:06:36;12.50;99.90
12688;DHT22;6408;59.388;17.798;2022-10-29T00:09:04;12.50;99.90
12688;DHT22;6408;59.388;17.798;2022-10-29T00:11:33;12.50;99.90
12688;DHT22;6408;59.388;17.798;2022-10-29T00:14:02;12.50;99.90
12688;DHT22;6408;59.388;17.798;2022-10-29T00:16:34;12.50;99.90
12688;DHT22;6408;59.388;17.798;2022-10-29T00:19:01;12.50;99.90
12688;DHT22;6408;59.388;17.798;2022-10-29T00:21:29;12.50;99.90
12688;DHT22;6408;59.388;17.798;2022-10-29T00:23:57;12.50;99.90
12688;DHT22;6408;59.388;17.798;2022-10-29T00:26:26;12.50;99.90
12688;DHT22;6408;59.388;17.798;2022-10-29T00:28:55;12.50;99.90
12688;DHT22;6408;59.388;17.798;2022-10-29T00:31:24;12.60;99.90
12688;DHT22;6408;59.388;17.798;2022-10-29T00:33:52;12.60;99.90
12688;DHT22;6408;59.388;17.798;2022-10-29T00:36:21;12.50;99.90
12688;DHT22;6408;59.388;17.798;2022-10-29T00:38:49;12.50;99.90
12688;DHT22;6408;59.388;17.798;2022-10-29T00:41:18;12.50;99.90
12688;DHT22;6408;59.388;17.798;2022-10-29T00:43:47;12.50;99.90
12688;DHT22;6408;59.388;17.798;2022-10-29T00:46:19;12.40;99.90
12688;DHT22;6408;59.388;17.798;2022-10-29T00:48:51;12.50;99.90
12688;DHT22;6408;59.388;17.798;2022-10-29T00:51:20;12.50;99.90
12688;DHT22;6408;59.388;17.798;2022-10-29T00:53:49;12.50;99.90
12688;DHT22;6408;59.388;17.798;2022-10-29T00:56:17;12.40;99.90
12688;DHT22;6408;59.388;17.798;2022-10-29T00:58:45;12.40;99.90
12688;DHT22;6408;59.388;17.798;2022-10-29T01:01:12;12.40;99.90
12688;DHT22;6408;59.388;17.798;2022-10-29T01:03:40;12.40;99.90
12688;DHT22;6408;59.388;17.798;2022-10-29T01:06:09;12.40;99.90
12688;DHT22;6408;59.388;17.798;2022-10-29T01:08:36;12.40;99.90
12688;DHT22;6408;59.388;17.798;2022-10-29T01:11:12;12.40;99.90
12688;DHT22;6408;59.388;17.798;2022-10-29T01:13:54;12.40;99.90
12688;DHT22;6408;59.388;17.798;2022-10-29T01:16:29;12.50;99.90
12688;DHT22;6408;59.388;17.798;2022-10-29T01:19:04;12.50;99.90
12688;DHT22;6408;59.388;17.798;2022-10-29T01:21:40;12.50;99.90
12688;DHT22;6408;59.388;17.798;2022-10-29T01:33:26;12.40;99.90
12688;DHT22;6408;59.388;17.798;2022-10-29T01:36:01;12.40;99.90
12688;DHT22;6408;59.388;17.798;2022-10-29T01:38:35;12.40;99.90
12688;DHT22;6408;59.388;17.798;2022-10-29T01:41:09;12.40;99.90
12688;DHT22;6408;59.388;17.798;2022-10-29T01:43:43;12.40;99.90
12688;DHT22;6408;59.388;17.798;2022-10-29T01:46:15;12.40;99.90
12688;DHT22;6408;59.388;17.798;2022-10-29T01:48:47;12.40;99.90
12688;DHT22;6408;59.388;17.798;2022-10-29T01:51:19;12.40;99.90
12688;DHT22;6408;59.388;17.798;2022-10-29T01:53:48;12.40;99.90
12688;DHT22;6408;59.388;17.798;2022-10-29T01:56:15;12.40;99.90
12688;DHT22;6408;59.388;17.798;2022-10-29T01:58:46;12.40;99.90
12688;DHT22;6408;59.388;17.798;2022-10-29T02:01:29;12.30;99.90
12688;DHT22;6408;59.388;17.798;2022-10-29T02:04:12;12.30;99.90
12688;DHT22;6408;59.388;17.798;2022-10-29T02:06:50;12.30;99.90
12688;DHT22;6408;59.388;17.798;2022-10-29T02:09:27;12.30;99.90
12688;DHT22;6408;59.388;17.798;2022-10-29T02:11:59;12.30;99.90
12688;DHT22;6408;59.388;17.798;2022-10-29T02:14:32;12.30;99.90
12688;DHT22;6408;59.388;17.798;2022-10-29T02:17:02;12.30;99.90
12688;DHT22;6408;59.388;17.798;2022-10-29T02:19:31;12.20;99.90
12688;DHT22;6408;59.388;17.798;2022-10-29T02:21:58;12.20;99.90
12688;DHT22;6408;59.388;17.798;2022-10-29T02:24:26;12.20;99.90
12688;DHT22;6408;59.388;17.798;2022-10-29T02:26:53;12.20;99.90
12688;DHT22;6408;59.388;17.798;2022-10-29T02:29:20;12.20;99.90
12688;DHT22;6408;59.388;17.798;2022-10-29T02:31:48;12.20;99.90
12688;DHT22;6408;59.388;17.798;2022-10-29T02:34:15;12.10;99.90
12688;DHT22;6408;59.388;17.798;2022-10-29T02:36:45;12.10;99.90
12688;DHT22;6408;59.388;17.798;2022-10-29T02:39:12;12.20;99.90
12688;DHT22;6408;59.388;17.798;2022-10-29T02:41:39;12.20;99.90
12688;DHT22;6408;59.388;17.798;2022-10-29T02:44:06;12.20;99.90
12688;DHT22;6408;59.388;17.798;2022-10-29T02:46:34;12.20;99.90
12688;DHT22;6408;59.388;17.798;2022-10-29T02:49:04;12.20;99.90
12688;DHT22;6408;59.388;17.798;2022-10-29T02:51:31;12.20;99.90
12688;DHT22;6408;59.388;17.798;2022-10-29T02:54:00;12.20;99.90
12688;DHT22;6408;59.388;17.798;2022-10-29T02:56:28;12.20;99.90
12688;DHT22;6408;59.388;17.798;2022-10-29T02:58:55;12.30;99.90
12688;DHT22;6408;59.388;17.798;2022-10-29T03:01:22;12.20;99.90
12688;DHT22;6408;59.388;17.798;2022-10-29T03:03:50;12.20;99.90
12688;DHT22;6408;59.388;17.798;2022-10-29T03:06:18;12.30;99.90
12688;DHT22;6408;59.388;17.798;2022-10-29T03:08:46;12.30;99.90
12688;DHT22;6408;59.388;17.798;2022-10-29T03:11:14;12.40;99.90
12688;DHT22;6408;59.388;17.798;2022-10-29T03:13:42;12.40;99.90
12688;DHT22;6408;59.388;17.798;2022-10-29T03:16:09;12.40;99.90
12688;DHT22;6408;59.388;17.798;2022-10-29T03:18:37;12.50;99.90
12688;DHT22;6408;59.388;17.798;2022-10-29T03:21:04;12.50;99.90
12688;DHT22;6408;59.388;17.798;2022-10-29T03:23:31;12.50;99.90
12688;DHT22;6408;59.388;17.798;2022-10-29T03:25:58;12.50;99.90
12688;DHT22;6408;59.388;17.798;2022-10-29T03:28:28;12.50;99.90
12688;DHT22;6408;59.388;17.798;2022-10-29T03:30:55;12.50;99.90
12688;DHT22;6408;59.388;17.798;2022-10-29T03:33:23;12.50;99.90
12688;DHT22;6408;59.388;17.798;2022-10-29T03:35:55;12.50;99.90
12688;DHT22;6408;59.388;17.798;2022-10-29T03:38:23;12.50;99.90
12688;DHT22;6408;59.388;17.798;2022-10-29T03:40:50;12.50;99.90
12688;DHT22;6408;59.388;17.798;2022-10-29T03:43:17;12.60;99.90
12688;DHT22;6408;59.388;17.798;2022-10-29T03:45:50;12.60;99.90
12688;DHT22;6408;59.388;17.798;2022-10-29T03:48:18;12.70;99.90
12688;DHT22;6408;59.388;17.798;2022-10-29T03:50:53;12.70;99.90
12688;DHT22;6408;59.388;17.798;2022-10-29T03:53:20;12.80;99.90
12688;DHT22;6408;59.388;17.798;2022-10-29T03:55:49;12.80;99.90
12688;DHT22;6408;59.388;17.798;2022-10-29T03:58:16;12.80;99.90
12688;DHT22;6408;59.388;17.798;2022-10-29T04:00:53;12.80;99.90
12688;DHT22;6408;59.388;17.798;2022-10-29T04:03:20;12.80;99.90
12688;DHT22;6408;59.388;17.798;2022-10-29T04:05:47;12.90;99.90
12688;DHT22;6408;59.388;17.798;2022-10-29T04:08:15;12.90;99.90
12688;DHT22;6408;59.388;17.798;2022-10-29T04:10:46;13.00;99.90
12688;DHT22;6408;59.388;17.798;2022-10-29T04:13:13;13.00;99.90
12688;DHT22;6408;59.388;17.798;2022-10-29T04:15:41;13.00;99.90
12688;DHT22;6408;59.388;17.798;2022-10-29T04:18:12;13.00;99.90
12688;DHT22;6408;59.388;17.798;2022-10-29T04:20:39;13.00;99.90
12688;DHT22;6408;59.388;17.798;2022-10-29T04:23:07;13.00;99.90
12688;DHT22;6408;59.388;17.798;2022-10-29T04:25:34;13.00;99.90
12688;DHT22;6408;59.388;17.798;2022-10-29T04:28:01;13.10;99.90
12688;DHT22;6408;59.388;17.798;2022-10-29T04:30:29;13.10;99.90
12688;DHT22;6408;59.388;17.798;2022-10-29T04:32:57;13.10;99.90
12688;DHT22;6408;59.388;17.798;2022-10-29T04:35:26;13.10;99.90
12688;DHT22;6408;59.388;17.798;2022-10-29T04:37:54;13.10;99.90
12688;DHT22;6408;59.388;17.798;2022-10-29T04:40:22;13.10;99.90
12688;DHT22;6408;59.388;17.798;2022-10-29T04:42:49;13.10;99.90
12688;DHT22;6408;59.388;17.798;2022-10-29T04:45:17;13.10;99.90
12688;DHT22;6408;59.388;17.798;2022-10-29T04:47:44;13.10;99.90
12688;DHT22;6408;59.388;17.798;2022-10-29T04:50:12;13.10;99.90
12688;DHT22;6408;59.388;17.798;2022-10-29T04:52:41;13.10;99.90
12688;DHT22;6408;59.388;17.798;2022-10-29T04:55:08;13.10;99.90
12688;DHT22;6408;59.388;17.798;2022-10-29T04:57:35;13.20;99.90
12688;DHT22;6408;59.388;17.798;2022-10-29T05:00:03;13.20;99.90
12688;DHT22;6408;59.388;17.798;2022-10-29T05:02:31;13.20;99.90
12688;DHT22;6408;59.388;17.798;2022-10-29T05:04:58;13.20;99.90
12688;DHT22;6408;59.388;17.798;2022-10-29T05:07:25;13.20;99.90
12688;DHT22;6408;59.388;17.798;2022-10-29T05:09:54;13.10;99.90
12688;DHT22;6408;59.388;17.798;2022-10-29T05:12:21;13.10;99.90
12688;DHT22;6408;59.388;17.798;2022-10-29T05:14:48;13.20;99.90
12688;DHT22;6408;59.388;17.798;2022-10-29T05:17:15;13.20;99.90
12688;DHT22;6408;59.388;17.798;2022-10-29T05:19:43;13.20;99.90
12688;DHT22;6408;59.388;17.798;2022-10-29T05:22:10;13.30;99.90
12688;DHT22;6408;59.388;17.798;2022-10-29T05:24:38;13.30;99.90
12688;DHT22;6408;59.388;17.798;2022-10-29T05:27:07;13.30;99.90
12688;DHT22;6408;59.388;17.798;2022-10-29T05:29:34;13.30;99.90
12688;DHT22;6408;59.388;17.798;2022-10-29T05:32:01;13.30;99.90
12688;DHT22;6408;59.388;17.798;2022-10-29T05:34:29;13.40;99.90
12688;DHT22;6408;59.388;17.798;2022-10-29T05:36:56;13.40;99.90
12688;DHT22;6408;59.388;17.798;2022-10-29T05:39:23;13.40;99.90
12688;DHT22;6408;59.388;17.798;2022-10-29T05:41:50;13.40;99.90
12688;DHT22;6408;59.388;17.798;2022-10-29T05:44:19;13.40;99.90
12688;DHT22;6408;59.388;17.798;2022-10-29T05:46:47;13.40;99.90
12688;DHT22;6408;59.388;17.798;2022-10-29T05:49:14;13.40;99.90
12688;DHT22;6408;59.388;17.798;2022-10-29T05:51:42;13.40;99.90
12688;DHT22;6408;59.388;17.798;2022-10-29T05:54:09;13.40;99.90
12688;DHT22;6408;59.388;17.798;2022-10-29T05:56:37;13.40;99.90
12688;DHT22;6408;59.388;17.798;2022-10-29T05:59:04;13.40;99.90
12688;DHT22;6408;59.388;17.798;2022-10-29T06:01:33;13.40;99.90
12688;DHT22;6408;59.388;17.798;2022-10-29T06:04:00;13.50;99.90
12688;DHT22;6408;59.388;17.798;2022-10-29T06:06:27;13.50;99.90
12688;DHT22;6408;59.388;17.798;2022-10-29T06:08:55;13.50;99.90
12688;DHT22;6408;59.388;17.798;2022-10-29T06:11:23;13.50;99.90
12688;DHT22;6408;59.388;17.798;2022-10-29T06:13:53;13.50;99.90
12688;DHT22;6408;59.388;17.798;2022-10-29T06:16:20;13.50;99.90
12688;DHT22;6408;59.388;17.798;2022-10-29T06:18:51;13.50;99.90
12688;DHT22;6408;59.388;17.798;2022-10-29T06:21:18;13.50;99.90
12688;DHT22;6408;59.388;17.798;2022-10-29T06:23:46;13.60;99.90
12688;DHT22;6408;59.388;17.798;2022-10-29T06:26:15;13.50;99.90
12688;DHT22;6408;59.388;17.798;2022-10-29T06:28:42;13.50;99.90
12688;DHT22;6408;59.388;17.798;2022-10-29T06:31:09;13.50;99.90
12688;DHT22;6408;59.388;17.798;2022-10-29T06:33:37;13.50;99.90
12688;DHT22;6408;59.388;17.798;2022-10-29T06:36:07;13.50;99.90
12688;DHT22;6408;59.388;17.798;2022-10-29T06:38:34;13.60;99.90
12688;DHT22;6408;59.388;17.798;2022-10-29T06:41:01;13.50;99.90
12688;DHT22;6408;59.388;17.798;2022-10-29T06:43:29;13.50;99.90
12688;DHT22;6408;59.388;17.798;2022-10-29T06:45:56;13.50;99.90
12688;DHT22;6408;59.388;17.798;2022-10-29T06:48:23;13.50;99.90
12688;DHT22;6408;59.388;17.798;2022-10-29T06:50:52;13.40;99.90
12688;DHT22;6408;59.388;17.798;2022-10-29T06:53:22;13.50;99.90
12688;DHT22;6408;59.388;17.798;2022-10-29T06:55:49;13.40;99.90
12688;DHT22;6408;59.388;17.798;2022-10-29T06:58:18;13.40;99.90
12688;DHT22;6408;59.388;17.798;2022-10-29T07:00:46;13.40;99.90
12688;DHT22;6408;59.388;17.798;2022-10-29T07:03:15;13.40;99.90
12688;DHT22;6408;59.388;17.798;2022-10-29T07:05:43;13.40;99.90
12688;DHT22;6408;59.388;17.798;2022-10-29T07:08:10;13.40;99.90
12688;DHT22;6408;59.388;17.798;2022-10-29T07:10:39;13.30;99.90
12688;DHT22;6408;59.388;17.798;2022-10-29T07:13:08;13.30;99.90
12688;DHT22;6408;59.388;17.798;2022-10-29T07:15:35;13.30;99.90
12688;DHT22;6408;59.388;17.798;2022-10-29T07:18:04;13.30;99.90
12688;DHT22;6408;59.388;17.798;2022-10-29T07:20:34;13.20;99.90
12688;DHT22;6408;59.388;17.798;2022-10-29T07:23:02;13.20;99.90
12688;DHT22;6408;59.388;17.798;2022-10-29T07:25:30;13.20;99.90
12688;DHT22;6408;59.388;17.798;2022-10-29T07:28:03;13.10;99.90
12688;DHT22;6408;59.388;17.798;2022-10-29T07:30:31;13.00;99.90
12688;DHT22;6408;59.388;17.798;2022-10-29T07:32:59;13.00;99.90
12688;DHT22;6408;59.388;17.798;2022-10-29T07:35:27;13.00;99.90
12688;DHT22;6408;59.388;17.798;2022-10-29T07:37:57;13.00;99.90
12688;DHT22;6408;59.388;17.798;2022-10-29T07:40:25;13.00;99.90
12688;DHT22;6408;59.388;17.798;2022-10-29T07:42:52;13.00;99.90
12688;DHT22;6408;59.388;17.798;2022-10-29T07:45:21;13.00;99.90
12688;DHT22;6408;59.388;17.798;2022-10-29T07:47:48;13.00;99.90
12688;DHT22;6408;59.388;17.798;2022-10-29T07:50:23;12.90;99.90
12688;DHT22;6408;59.388;17.798;2022-10-29T07:52:51;12.90;99.90
12688;DHT22;6408;59.388;17.798;2022-10-29T07:55:18;12.90;99.90
12688;DHT22;6408;59.388;17.798;2022-10-29T07:57:45;12.80;99.90
12688;DHT22;6408;59.388;17.798;2022-10-29T08:00:13;12.80;99.90
12688;DHT22;6408;59.388;17.798;2022-10-29T08:02:42;12.80;99.90
12688;DHT22;6408;59.388;17.798;2022-10-29T08:05:09;12.80;99.90
12688;DHT22;6408;59.388;17.798;2022-10-29T08:07:36;12.80;99.90
12688;DHT22;6408;59.388;17.798;2022-10-29T08:10:05;12.80;99.90
12688;DHT22;6408;59.388;17.798;2022-10-29T08:12:32;12.80;99.90
12688;DHT22;6408;59.388;17.798;2022-10-29T08:14:59;12.80;99.90
12688;DHT22;6408;59.388;17.798;2022-10-29T08:17:28;12.80;99.90
12688;DHT22;6408;59.388;17.798;2022-10-29T08:19:57;12.80;99.90
12688;DHT22;6408;59.388;17.798;2022-10-29T08:22:24;12.80;99.90
12688;DHT22;6408;59.388;17.798;2022-10-29T08:24:51;12.80;99.90
12688;DHT22;6408;59.388;17.798;2022-10-29T08:27:18;12.80;99.90
12688;DHT22;6408;59.388;17.798;2022-10-29T08:29:46;12.80;99.90
12688;DHT22;6408;59.388;17.798;2022-10-29T08:32:13;12.80;99.90
12688;DHT22;6408;59.388;17.798;2022-10-29T08:34:40;12.80;99.90
12688;DHT22;6408;59.388;17.798;2022-10-29T08:37:09;12.80;99.90
12688;DHT22;6408;59.388;17.798;2022-10-29T08:39:36;12.80;99.90
12688;DHT22;6408;59.388;17.798;2022-10-29T08:42:12;12.80;99.90
12688;DHT22;6408;59.388;17.798;2022-10-29T08:45:14;12.80;99.90
12688;DHT22;6408;59.388;17.798;2022-10-29T08:48:00;12.80;99.90
12688;DHT22;6408;59.388;17.798;2022-10-29T08:50:33;12.80;99.90
12688;DHT22;6408;59.388;17.798;2022-10-29T08:53:14;12.90;99.90
12688;DHT22;6408;59.388;17.798;2022-10-29T08:55:43;12.90;99.90
12688;DHT22;6408;59.388;17.798;2022-10-29T08:58:20;12.90;99.90
12688;DHT22;6408;59.388;17.798;2022-10-29T09:00:53;12.90;99.90
12688;DHT22;6408;59.388;17.798;2022-10-29T09:03:22;13.00;99.90
12688;DHT22;6408;59.388;17.798;2022-10-29T09:05:58;13.00;99.90
12688;DHT22;6408;59.388;17.798;2022-10-29T09:08:36;13.10;99.90
12688;DHT22;6408;59.388;17.798;2022-10-29T09:11:09;13.20;99.90
12688;DHT22;6408;59.388;17.798;2022-10-29T09:13:49;13.50;99.90
12688;DHT22;6408;59.388;17.798;2022-10-29T09:16:28;13.60;99.90
12688;DHT22;6408;59.388;17.798;2022-10-29T09:19:08;14.00;99.90
12688;DHT22;6408;59.388;17.798;2022-10-29T09:21:47;14.30;99.90
12688;DHT22;6408;59.388;17.798;2022-10-29T09:24:25;14.40;99.90
12688;DHT22;6408;59.388;17.798;2022-10-29T09:26:57;14.30;99.90
12688;DHT22;6408;59.388;17.798;2022-10-29T09:29:57;14.30;99.90
12688;DHT22;6408;59.388;17.798;2022-10-29T09:32:33;14.00;99.90
12688;DHT22;6408;59.388;17.798;2022-10-29T09:35:14;14.00;99.90
12688;DHT22;6408;59.388;17.798;2022-10-29T09:37:48;14.00;99.90
12688;DHT22;6408;59.388;17.798;2022-10-29T09:40:28;14.40;99.90
12688;DHT22;6408;59.388;17.798;2022-10-29T09:42:57;14.80;99.90
12688;DHT22;6408;59.388;17.798;2022-10-29T09:45:40;16.80;99.90
12688;DHT22;6408;59.388;17.798;2022-10-29T09:48:12;18.80;99.90
12688;DHT22;6408;59.388;17.798;2022-10-29T09:50:51;18.90;99.90
12688;DHT22;6408;59.388;17.798;2022-10-29T09:53:20;19.30;99.90
12688;DHT22;6408;59.388;17.798;2022-10-29T09:55:49;19.00;99.90
12688;DHT22;6408;59.388;17.798;2022-10-29T09:58:20;18.60;99.90
12688;DHT22;6408;59.388;17.798;2022-10-29T10:00:48;18.40;99.90
12688;DHT22;6408;59.388;17.798;2022-10-29T10:03:18;19.90;99.90
12688;DHT22;6408;59.388;17.798;2022-10-29T10:06:05;20.30;99.90
12688;DHT22;6408;59.388;17.798;2022-10-29T10:08:34;20.10;99.90
12688;DHT22;6408;59.388;17.798;2022-10-29T10:11:04;18.70;99.90
12688;DHT22;6408;59.388;17.798;2022-10-29T10:13:34;17.60;99.90
12688;DHT22;6408;59.388;17.798;2022-10-29T10:16:04;17.30;99.90
12688;DHT22;6408;59.388;17.798;2022-10-29T10:18:39;16.60;99.90
12688;DHT22;6408;59.388;17.798;2022-10-29T10:21:08;16.20;99.90
12688;DHT22;6408;59.388;17.798;2022-10-29T10:23:42;16.60;99.90
12688;DHT22;6408;59.388;17.798;2022-10-29T10:26:30;16.70;99.90
12688;DHT22;6408;59.388;17.798;2022-10-29T10:29:19;16.20;99.90
12688;DHT22;6408;59.388;17.798;2022-10-29T10:31:48;15.60;99.90
12688;DHT22;6408;59.388;17.798;2022-10-29T10:34:18;15.10;99.90
12688;DHT22;6408;59.388;17.798;2022-10-29T10:36:49;15.00;99.90
12688;DHT22;6408;59.388;17.798;2022-10-29T10:39:24;14.90;99.90
12688;DHT22;6408;59.388;17.798;2022-10-29T10:41:54;14.80;99.90
12688;DHT22;6408;59.388;17.798;2022-10-29T10:44:22;15.00;99.90
12688;DHT22;6408;59.388;17.798;2022-10-29T10:46:52;15.70;99.90
12688;DHT22;6408;59.388;17.798;2022-10-29T10:49:30;16.20;99.90
12688;DHT22;6408;59.388;17.798;2022-10-29T10:52:02;16.70;99.90
12688;DHT22;6408;59.388;17.798;2022-10-29T10:54:32;17.00;99.90
12688;DHT22;6408;59.388;17.798;2022-10-29T10:57:04;18.20;99.90
12688;DHT22;6408;59.388;17.798;2022-10-29T10:59:49;18.70;99.90
12688;DHT22;6408;59.388;17.798;2022-10-29T11:02:26;17.60;99.90
12688;DHT22;6408;59.388;17.798;2022-10-29T11:04:58;18.50;99.90
12688;DHT22;6408;59.388;17.798;2022-10-29T11:07:31;18.10;99.90
12688;DHT22;6408;59.388;17.798;2022-10-29T11:10:02;17.00;99.90
12688;DHT22;6408;59.388;17.798;2022-10-29T11:12:35;17.50;99.90
12688;DHT22;6408;59.388;17.798;2022-10-29T11:15:09;17.60;99.90
12688;DHT22;6408;59.388;17.798;2022-10-29T11:17:44;16.90;99.90
12688;DHT22;6408;59.388;17.798;2022-10-29T11:20:18;17.70;99.90
12688;DHT22;6408;59.388;17.798;2022-10-29T11:22:53;19.10;99.90
12688;DHT22;6408;59.388;17.798;2022-10-29T11:25:26;17.90;99.90
12688;DHT22;6408;59.388;17.798;2022-10-29T11:28:02;16.70;99.90
12688;DHT22;6408;59.388;17.798;2022-10-29T11:30:39;15.70;99.90
12688;DHT22;6408;59.388;17.798;2022-10-29T11:33:14;15.20;99.90
12688;DHT22;6408;59.388;17.798;2022-10-29T11:35:47;15.00;99.90
12688;DHT22;6408;59.388;17.798;2022-10-29T11:38:18;14.70;99.90
12688;DHT22;6408;59.388;17.798;2022-10-29T11:40:50;14.60;99.90
12688;DHT22;6408;59.388;17.798;2022-10-29T11:43:21;14.80;99.90
12688;DHT22;6408;59.388;17.798;2022-10-29T11:46:03;15.50;99.90
12688;DHT22;6408;59.388;17.798;2022-10-29T11:48:48;15.60;99.90
12688;DHT22;6408;59.388;17.798;2022-10-29T11:51:27;14.90;99.90
12688;DHT22;6408;59.388;17.798;2022-10-29T11:54:01;14.70;99.90
12688;DHT22;6408;59.388;17.798;2022-10-29T11:56:40;14.80;99.90
12688;DHT22;6408;59.388;17.798;2022-10-29T11:59:20;15.80;99.90
12688;DHT22;6408;59.388;17.798;2022-10-29T12:01:55;15.90;99.90
12688;DHT22;6408;59.388;17.798;2022-10-29T12:04:26;15.20;99.90
12688;DHT22;6408;59.388;17.798;2022-10-29T12:10:08;14.50;99.90
12688;DHT22;6408;59.388;17.798;2022-10-29T12:12:42;14.60;99.90
12688;DHT22;6408;59.388;17.798;2022-10-29T12:15:21;15.30;99.90
12688;DHT22;6408;59.388;17.798;2022-10-29T12:17:55;15.40;99.90
12688;DHT22;6408;59.388;17.798;2022-10-29T12:20:31;15.30;99.90
12688;DHT22;6408;59.388;17.798;2022-10-29T12:23:06;14.90;99.90
12688;DHT22;6408;59.388;17.798;2022-10-29T12:25:44;15.40;99.90
12688;DHT22;6408;59.388;17.798;2022-10-29T12:28:21;15.20;99.90
12688;DHT22;6408;59.388;17.798;2022-10-29T12:31:12;15.00;99.90
12688;DHT22;6408;59.388;17.798;2022-10-29T12:33:48;15.40;99.90
12688;DHT22;6408;59.388;17.798;2022-10-29T12:36:30;15.90;99.90
12688;DHT22;6408;59.388;17.798;2022-10-29T12:38:59;15.70;99.90
12688;DHT22;6408;59.388;17.798;2022-10-29T12:41:32;15.80;99.90
12688;DHT22;6408;59.388;17.798;2022-10-29T12:44:06;15.80;99.90
12688;DHT22;6408;59.388;17.798;2022-10-29T12:46:37;15.60;99.90
12688;DHT22;6408;59.388;17.798;2022-10-29T12:49:09;16.00;99.90
12688;DHT22;6408;59.388;17.798;2022-10-29T12:51:44;16.50;99.90
12688;DHT22;6408;59.388;17.798;2022-10-29T12:54:22;16.70;99.90
12688;DHT22;6408;59.388;17.798;2022-10-29T12:56:52;16.90;99.90
12688;DHT22;6408;59.388;17.798;2022-10-29T12:59:30;17.20;99.90
12688;DHT22;6408;59.388;17.798;2022-10-29T13:02:21;17.60;99.90
12688;DHT22;6408;59.388;17.798;2022-10-29T13:05:18;17.60;99.90
12688;DHT22;6408;59.388;17.798;2022-10-29T13:08:26;17.40;99.90
12688;DHT22;6408;59.388;17.798;2022-10-29T13:10:58;17.40;99.90
12688;DHT22;6408;59.388;17.798;2022-10-29T13:13:56;17.20;99.90
12688;DHT22;6408;59.388;17.798;2022-10-29T13:16:29;16.50;99.90
12688;DHT22;6408;59.388;17.798;2022-10-29T13:19:13;16.50;99.90
12688;DHT22;6408;59.388;17.798;2022-10-29T13:22:04;16.40;99.90
12688;DHT22;6408;59.388;17.798;2022-10-29T13:24:34;16.10;99.90
12688;DHT22;6408;59.388;17.798;2022-10-29T13:27:04;15.70;99.90
12688;DHT22;6408;59.388;17.798;2022-10-29T13:30:17;15.00;99.90
12688;DHT22;6408;59.388;17.798;2022-10-29T13:32:44;14.70;99.90
12688;DHT22;6408;59.388;17.798;2022-10-29T13:38:14;14.30;99.90
12688;DHT22;6408;59.388;17.798;2022-10-29T13:41:06;14.10;99.90
12688;DHT22;6408;59.388;17.798;2022-10-29T13:43:34;13.90;99.90
12688;DHT22;6408;59.388;17.798;2022-10-29T13:46:26;13.80;99.90
12688;DHT22;6408;59.388;17.798;2022-10-29T13:48:54;13.70;99.90
12688;DHT22;6408;59.388;17.798;2022-10-29T13:51:27;13.60;99.90
12688;DHT22;6408;59.388;17.798;2022-10-29T13:54:03;13.60;99.90
12688;DHT22;6408;59.388;17.798;2022-10-29T13:56:37;13.50;99.90
12688;DHT22;6408;59.388;17.798;2022-10-29T13:59:13;13.50;99.90
12688;DHT22;6408;59.388;17.798;2022-10-29T14:01:55;13.40;99.90
12688;DHT22;6408;59.388;17.798;2022-10-29T14:04:29;13.40;99.90
12688;DHT22;6408;59.388;17.798;2022-10-29T14:06:59;13.40;99.90
12688;DHT22;6408;59.388;17.798;2022-10-29T14:09:35;13.40;99.90
12688;DHT22;6408;59.388;17.798;2022-10-29T14:12:06;13.50;99.90
12688;DHT22;6408;59.388;17.798;2022-10-29T14:14:40;13.40;99.90
12688;DHT22;6408;59.388;17.798;2022-10-29T14:17:13;13.50;99.90
12688;DHT22;6408;59.388;17.798;2022-10-29T14:19:45;13.50;99.90
12688;DHT22;6408;59.388;17.798;2022-10-29T14:22:33;13.50;99.90
12688;DHT22;6408;59.388;17.798;2022-10-29T14:25:33;13.50;99.90
12688;DHT22;6408;59.388;17.798;2022-10-29T14:28:17;13.60;99.90
12688;DHT22;6408;59.388;17.798;2022-10-29T14:30:44;13.60;99.90
12688;DHT22;6408;59.388;17.798;2022-10-29T14:33:22;13.50;99.90
12688;DHT22;6408;59.388;17.798;2022-10-29T14:35:51;13.50;99.90
12688;DHT22;6408;59.388;17.798;2022-10-29T14:38:20;13.40;99.90
12688;DHT22;6408;59.388;17.798;2022-10-29T14:40:50;13.30;99.90
12688;DHT22;6408;59.388;17.798;2022-10-29T14:43:25;13.20;99.90
12688;DHT22;6408;59.388;17.798;2022-10-29T14:45:54;13.20;99.90
12688;DHT22;6408;59.388;17.798;2022-10-29T14:48:22;13.10;99.90
12688;DHT22;6408;59.388;17.798;2022-10-29T14:50:50;13.10;99.90
12688;DHT22;6408;59.388;17.798;2022-10-29T14:53:26;13.10;99.90
12688;DHT22;6408;59.388;17.798;2022-10-29T14:55:57;13.00;99.90
12688;DHT22;6408;59.388;17.798;2022-10-29T14:58:27;12.90;99.90
12688;DHT22;6408;59.388;17.798;2022-10-29T15:00:57;12.90;99.90
12688;DHT22;6408;59.388;17.798;2022-10-29T15:03:27;12.80;99.90
12688;DHT22;6408;59.388;17.798;2022-10-29T15:06:14;12.80;99.90
12688;DHT22;6408;59.388;17.798;2022-10-29T15:08:44;12.70;99.90
12688;DHT22;6408;59.388;17.798;2022-10-29T15:11:34;12.70;99.90
12688;DHT22;6408;59.388;17.798;2022-10-29T15:14:02;12.60;99.90
12688;DHT22;6408;59.388;17.798;2022-10-29T15:16:30;12.60;99.90
12688;DHT22;6408;59.388;17.798;2022-10-29T15:18:58;12.60;99.90
12688;DHT22;6408;59.388;17.798;2022-10-29T15:21:28;12.50;99.90
12688;DHT22;6408;59.388;17.798;2022-10-29T15:23:59;12.50;99.90
12688;DHT22;6408;59.388;17.798;2022-10-29T15:26:33;12.50;99.90
12688;DHT22;6408;59.388;17.798;2022-10-29T15:29:01;12.40;99.90
12688;DHT22;6408;59.388;17.798;2022-10-29T15:31:42;12.30;99.90
12688;DHT22;6408;59.388;17.798;2022-10-29T15:34:14;12.30;99.90
12688;DHT22;6408;59.388;17.798;2022-10-29T15:36:48;12.30;99.90
12688;DHT22;6408;59.388;17.798;2022-10-29T15:39:21;12.30;99.90
12688;DHT22;6408;59.388;17.798;2022-10-29T15:41:54;12.40;99.90
12688;DHT22;6408;59.388;17.798;2022-10-29T15:44:36;12.30;99.90
12688;DHT22;6408;59.388;17.798;2022-10-29T15:47:20;12.30;99.90
12688;DHT22;6408;59.388;17.798;2022-10-29T15:49:47;12.20;99.90
12688;DHT22;6408;59.388;17.798;2022-10-29T15:52:17;12.20;99.90
12688;DHT22;6408;59.388;17.798;2022-10-29T15:54:45;12.10;99.90
12688;DHT22;6408;59.388;17.798;2022-10-29T15:57:15;12.10;99.90
12688;DHT22;6408;59.388;17.798;2022-10-29T15:59:43;12.10;99.90
12688;DHT22;6408;59.388;17.798;2022-10-29T16:02:12;12.10;99.90
12688;DHT22;6408;59.388;17.798;2022-10-29T16:04:39;12.20;99.90
12688;DHT22;6408;59.388;17.798;2022-10-29T16:07:11;12.20;99.90
12688;DHT22;6408;59.388;17.798;2022-10-29T16:09:41;12.20;99.90
12688;DHT22;6408;59.388;17.798;2022-10-29T16:12:09;12.10;99.90
12688;DHT22;6408;59.388;17.798;2022-10-29T16:14:38;12.10;99.90